sensor_id;sensor_type;location;lat;lon;timestamp;temperature;humidity
12893;DHT22;6514;48.606;9.222;2023-07-29T00:00:57;16.10;99.90
12893;DHT22;6514;48.606;9.222;2023-07-29T00:03:23;16.10;99.90
12893;DHT22;6514;48.606;9.222;2023-07-29T00:05:50;16.10;99.90
12893;DHT22;6514;48.606;9.222;2023-07-29T00:08:17;16.10;99.90
12893;DHT22;6514;48.606;9.222;2023-07-29T00:10:45;16.10;99.90
12893;DHT22;6514;48.606;9.222;2023-07-29T00:13:12;16.20;99.90
12893;DHT22;6514;48.606;9.222;2023-07-29T00:15:39;16.20;99.90
12893;DHT22;6514;48.606;9.222;2023-07-29T00:18:06;16.20;99.90
12893;DHT22;6514;48.606;9.222;2023-07-29T00:20:32;16.30;99.90
12893;DHT22;6514;48.606;9.222;2023-07-29T00:22:59;16.30;99.90
12893;DHT22;6514;48.606;9.222;2023-07-29T00:25:27;16.30;99.90
12893;DHT22;6514;48.606;9.222;2023-07-29T00:27:55;16.30;99.90
12893;DHT22;6514;48.606;9.222;2023-07-29T00:30:22;16.30;99.90
12893;DHT22;6514;48.606;9.222;2023-07-29T00:32:49;16.40;99.90
12893;DHT22;6514;48.606;9.222;2023-07-29T00:35:16;16.40;99.90
12893;DHT22;6514;48.606;9.222;2023-07-29T00:37:43;16.40;99.90
12893;DHT22;6514;48.606;9.222;2023-07-29T00:40:14;16.40;99.90
12893;DHT22;6514;48.606;9.222;2023-07-29T00:42:41;16.40;99.90
12893;DHT22;6514;48.606;9.222;2023-07-29T00:45:10;16.40;99.90
12893;DHT22;6514;48.606;9.222;2023-07-29T00:47:37;16.40;99.90
12893;DHT22;6514;48.606;9.222;2023-07-29T00:50:05;16.40;99.90
12893;DHT22;6514;48.606;9.222;2023-07-29T00:52:33;16.40;99.90
12893;DHT22;6514;48.606;9.222;2023-07-29T00:54:59;16.40;99.90
12893;DHT22;6514;48.606;9.222;2023-07-29T00:57:26;16.40;99.90
12893;DHT22;6514;48.606;9.222;2023-07-29T00:59:54;16.40;99.90
12893;DHT22;6514;48.606;9.222;2023-07-29T01:02:22;16.40;99.90
12893;DHT22;6514;48.606;9.222;2023-07-29T01:04:52;16.40;99.90
12893;DHT22;6514;48.606;9.222;2023-07-29T01:07:23;16.40;99.90
12893;DHT22;6514;48.606;9.222;2023-07-29T01:10:01;16.50;99.90
12893;DHT22;6514;48.606;9.222;2023-07-29T01:12:36;16.50;99.90
12893;DHT22;6514;48.606;9.222;2023-07-29T01:15:11;16.50;99.90
12893;DHT22;6514;48.606;9.222;2023-07-29T01:17:44;16.40;99.90
12893;DHT22;6514;48.606;9.222;2023-07-29T01:20:14;16.50;99.90
12893;DHT22;6514;48.606;9.222;2023-07-29T01:22:43;16.50;99.90
12893;DHT22;6514;48.606;9.222;2023-07-29T01:25:11;16.50;99.90
12893;DHT22;6514;48.606;9.222;2023-07-29T01:27:38;16.50;99.90
12893;DHT22;6514;48.606;9.222;2023-07-29T01:30:06;16.50;99.90
12893;DHT22;6514;48.606;9.222;2023-07-29T01:32:40;16.60;99.90
12893;DHT22;6514;48.606;9.222;2023-07-29T01:35:23;16.60;99.90
12893;DHT22;6514;48.606;9.222;2023-07-29T01:37:58;16.60;99.90
12893;DHT22;6514;48.606;9.222;2023-07-29T01:40:28;16.60;99.90
12893;DHT22;6514;48.606;9.222;2023-07-29T01:42:55;16.60;99.90
12893;DHT22;6514;48.606;9.222;2023-07-29T01:45:23;16.60;99.90
12893;DHT22;6514;48.606;9.222;2023-07-29T01:47:51;16.60;99.90
12893;DHT22;6514;48.606;9.222;2023-07-29T01:50:18;16.60;99.90
12893;DHT22;6514;48.606;9.222;2023-07-29T01:52:44;16.70;99.90
12893;DHT22;6514;48.606;9.222;2023-07-29T01:55:11;16.60;99.90
12893;DHT22;6514;48.606;9.222;2023-07-29T01:57:39;16.70;99.90
12893;DHT22;6514;48.606;9.222;2023-07-29T02:00:07;16.70;99.90
12893;DHT22;6514;48.606;9.222;2023-07-29T02:02:34;16.60;99.90
12893;DHT22;6514;48.606;9.222;2023-07-29T02:05:01;16.60;99.90
12893;DHT22;6514;48.606;9.222;2023-07-29T02:07:28;16.70;99.90
12893;DHT22;6514;48.606;9.222;2023-07-29T02:09:54;16.60;99.90
12893;DHT22;6514;48.606;9.222;2023-07-29T02:12:21;16.60;99.90
12893;DHT22;6514;48.606;9.222;2023-07-29T02:14:49;16.60;99.90
12893;DHT22;6514;48.606;9.222;2023-07-29T02:17:17;16.50;99.90
12893;DHT22;6514;48.606;9.222;2023-07-29T02:19:44;16.50;99.90
12893;DHT22;6514;48.606;9.222;2023-07-29T02:22:13;16.50;99.90
12893;DHT22;6514;48.606;9.222;2023-07-29T02:24:40;16.40;99.90
12893;DHT22;6514;48.606;9.222;2023-07-29T02:27:07;16.40;99.90
12893;DHT22;6514;48.606;9.222;2023-07-29T02:29:34;16.40;99.90
12893;DHT22;6514;48.606;9.222;2023-07-29T02:32:02;16.50;99.90
12893;DHT22;6514;48.606;9.222;2023-07-29T02:34:29;16.40;99.90
12893;DHT22;6514;48.606;9.222;2023-07-29T02:36:56;16.40;99.90
12893;DHT22;6514;48.606;9.222;2023-07-29T02:39:23;16.40;99.90
12893;DHT22;6514;48.606;9.222;2023-07-29T02:41:50;16.40;99.90
12893;DHT22;6514;48.606;9.222;2023-07-29T02:44:17;16.40;99.90
12893;DHT22;6514;48.606;9.222;2023-07-29T02:46:45;16.30;99.90
12893;DHT22;6514;48.606;9.222;2023-07-29T02:49:13;16.30;99.90
12893;DHT22;6514;48.606;9.222;2023-07-29T02:51:39;16.30;99.90
12893;DHT22;6514;48.606;9.222;2023-07-29T02:54:06;16.30;99.90
12893;DHT22;6514;48.606;9.222;2023-07-29T02:56:33;16.20;99.90
12893;DHT22;6514;48.606;9.222;2023-07-29T02:59:00;16.20;99.90
12893;DHT22;6514;48.606;9.222;2023-07-29T03:01:27;16.20;99.90
12893;DHT22;6514;48.606;9.222;2023-07-29T03:03:53;16.20;99.90
12893;DHT22;6514;48.606;9.222;2023-07-29T03:06:22;16.20;99.90
12893;DHT22;6514;48.606;9.222;2023-07-29T03:08:49;16.30;99.90
12893;DHT22;6514;48.606;9.222;2023-07-29T03:11:16;16.20;99.90
12893;DHT22;6514;48.606;9.222;2023-07-29T03:13:43;16.20;99.90
12893;DHT22;6514;48.606;9.222;2023-07-29T03:16:10;16.20;99.90
12893;DHT22;6514;48.606;9.222;2023-07-29T03:18:38;16.30;99.90
12893;DHT22;6514;48.606;9.222;2023-07-29T03:21:05;16.30;99.90
12893;DHT22;6514;48.606;9.222;2023-07-29T03:23:34;16.20;99.90
12893;DHT22;6514;48.606;9.222;2023-07-29T03:26:02;16.20;99.90
12893;DHT22;6514;48.606;9.222;2023-07-29T03:28:36;16.20;99.90
12893;DHT22;6514;48.606;9.222;2023-07-29T03:31:03;16.20;99.90
12893;DHT22;6514;48.606;9.222;2023-07-29T03:33:30;16.20;99.90
12893;DHT22;6514;48.606;9.222;2023-07-29T03:35:56;16.20;99.90
12893;DHT22;6514;48.606;9.222;2023-07-29T03:38:23;16.30;99.90
12893;DHT22;6514;48.606;9.222;2023-07-29T03:40:52;16.30;99.90
12893;DHT22;6514;48.606;9.222;2023-07-29T03:43:19;16.20;99.90
12893;DHT22;6514;48.606;9.222;2023-07-29T03:45:45;16.30;99.90
12893;DHT22;6514;48.606;9.222;2023-07-29T03:48:12;16.30;99.90
12893;DHT22;6514;48.606;9.222;2023-07-29T03:50:39;16.30;99.90
12893;DHT22;6514;48.606;9.222;2023-07-29T03:53:06;16.30;99.90
12893;DHT22;6514;48.606;9.222;2023-07-29T03:55:34;16.40;99.90
12893;DHT22;6514;48.606;9.222;2023-07-29T03:58:03;16.40;99.90
12893;DHT22;6514;48.606;9.222;2023-07-29T04:00:29;16.40;99.90
12893;DHT22;6514;48.606;9.222;2023-07-29T04:02:56;16.40;99.90
12893;DHT22;6514;48.606;9.222;2023-07-29T04:05:23;16.40;99.90
12893;DHT22;6514;48.606;9.222;2023-07-29T04:07:50;16.50;99.90
12893;DHT22;6514;48.606;9.222;2023-07-29T04:10:17;16.50;99.90
12893;DHT22;6514;48.606;9.222;2023-07-29T04:12:44;16.50;99.90
12893;DHT22;6514;48.606;9.222;2023-07-29T04:15:12;16.50;99.90
12893;DHT22;6514;48.606;9.222;2023-07-29T04:17:39;16.40;99.90
12893;DHT22;6514;48.606;9.222;2023-07-29T04:20:07;16.50;99.90
12893;DHT22;6514;48.606;9.222;2023-07-29T04:22:34;16.50;99.90
12893;DHT22;6514;48.606;9.222;2023-07-29T04:25:00;16.60;99.90
12893;DHT22;6514;48.606;9.222;2023-07-29T04:27:27;16.60;99.90
12893;DHT22;6514;48.606;9.222;2023-07-29T04:29:54;16.60;99.90
12893;DHT22;6514;48.606;9.222;2023-07-29T04:32:22;16.60;99.90
12893;DHT22;6514;48.606;9.222;2023-07-29T04:34:49;16.60;99.90
12893;DHT22;6514;48.606;9.222;2023-07-29T04:37:16;16.50;99.90
12893;DHT22;6514;48.606;9.222;2023-07-29T04:39:42;16.60;99.90
12893;DHT22;6514;48.606;9.222;2023-07-29T04:42:09;16.60;99.90
12893;DHT22;6514;48.606;9.222;2023-07-29T04:44:36;16.70;99.90
12893;DHT22;6514;48.606;9.222;2023-07-29T04:47:03;16.70;99.90
12893;DHT22;6514;48.606;9.222;2023-07-29T04:49:31;16.80;99.90
12893;DHT22;6514;48.606;9.222;2023-07-29T04:51:58;16.90;99.90
12893;DHT22;6514;48.606;9.222;2023-07-29T04:54:25;16.90;99.90
12893;DHT22;6514;48.606;9.222;2023-07-29T04:56:51;17.00;99.90
12893;DHT22;6514;48.606;9.222;2023-07-29T04:59:18;17.00;99.90
12893;DHT22;6514;48.606;9.222;2023-07-29T05:01:45;17.00;99.90
12893;DHT22;6514;48.606;9.222;2023-07-29T05:04:12;17.00;99.90
12893;DHT22;6514;48.606;9.222;2023-07-29T05:06:41;17.00;99.90
12893;DHT22;6514;48.606;9.222;2023-07-29T05:09:14;17.10;99.90
12893;DHT22;6514;48.606;9.222;2023-07-29T05:11:41;17.10;99.90
12893;DHT22;6514;48.606;9.222;2023-07-29T05:14:09;17.10;99.90
12893;DHT22;6514;48.606;9.222;2023-07-29T05:16:35;17.10;99.90
12893;DHT22;6514;48.606;9.222;2023-07-29T05:19:02;17.10;99.90
12893;DHT22;6514;48.606;9.222;2023-07-29T05:21:29;17.10;99.90
12893;DHT22;6514;48.606;9.222;2023-07-29T05:23:57;17.00;99.90
12893;DHT22;6514;48.606;9.222;2023-07-29T05:26:24;17.00;99.90
12893;DHT22;6514;48.606;9.222;2023-07-29T05:28:51;17.00;99.90
12893;DHT22;6514;48.606;9.222;2023-07-29T05:31:18;17.00;99.90
12893;DHT22;6514;48.606;9.222;2023-07-29T05:33:45;17.00;99.90
12893;DHT22;6514;48.606;9.222;2023-07-29T05:36:11;17.00;99.90
12893;DHT22;6514;48.606;9.222;2023-07-29T05:38:38;17.10;99.90
12893;DHT22;6514;48.606;9.222;2023-07-29T05:41:06;17.10;99.90
12893;DHT22;6514;48.606;9.222;2023-07-29T05:43:33;17.10;99.90
12893;DHT22;6514;48.606;9.222;2023-07-29T05:46:00;17.20;99.90
12893;DHT22;6514;48.606;9.222;2023-07-29T05:48:27;17.30;99.90
12893;DHT22;6514;48.606;9.222;2023-07-29T05:50:54;17.40;99.90
12893;DHT22;6514;48.606;9.222;2023-07-29T05:53:20;17.60;99.90
12893;DHT22;6514;48.606;9.222;2023-07-29T05:55:47;17.70;99.90
12893;DHT22;6514;48.606;9.222;2023-07-29T05:58:15;17.90;99.90
12893;DHT22;6514;48.606;9.222;2023-07-29T06:00:42;17.90;99.90
12893;DHT22;6514;48.606;9.222;2023-07-29T06:03:09;18.00;99.90
12893;DHT22;6514;48.606;9.222;2023-07-29T06:05:36;18.00;99.90
12893;DHT22;6514;48.606;9.222;2023-07-29T06:08:03;18.10;99.90
12893;DHT22;6514;48.606;9.222;2023-07-29T06:10:30;18.20;99.90
12893;DHT22;6514;48.606;9.222;2023-07-29T06:12:56;18.40;99.90
12893;DHT22;6514;48.606;9.222;2023-07-29T06:15:24;18.70;99.90
12893;DHT22;6514;48.606;9.222;2023-07-29T06:17:51;19.10;99.90
12893;DHT22;6514;48.606;9.222;2023-07-29T06:20:18;19.50;99.90
12893;DHT22;6514;48.606;9.222;2023-07-29T06:22:45;19.70;99.90
12893;DHT22;6514;48.606;9.222;2023-07-29T06:25:11;19.80;99.90
12893;DHT22;6514;48.606;9.222;2023-07-29T06:27:38;19.80;99.90
12893;DHT22;6514;48.606;9.222;2023-07-29T06:30:06;19.80;99.90
12893;DHT22;6514;48.606;9.222;2023-07-29T06:32:34;19.90;99.90
12893;DHT22;6514;48.606;9.222;2023-07-29T06:35:01;19.90;99.90
12893;DHT22;6514;48.606;9.222;2023-07-29T06:37:28;20.00;99.90
12893;DHT22;6514;48.606;9.222;2023-07-29T06:39:55;20.10;99.90
12893;DHT22;6514;48.606;9.222;2023-07-29T06:42:22;20.20;99.90
12893;DHT22;6514;48.606;9.222;2023-07-29T06:44:48;20.10;99.90
12893;DHT22;6514;48.606;9.222;2023-07-29T06:47:15;19.90;99.90
12893;DHT22;6514;48.606;9.222;2023-07-29T06:49:43;19.80;99.90
12893;DHT22;6514;48.606;9.222;2023-07-29T06:52:10;19.70;99.90
12893;DHT22;6514;48.606;9.222;2023-07-29T06:54:37;19.60;99.90
12893;DHT22;6514;48.606;9.222;2023-07-29T06:57:04;19.50;99.90
12893;DHT22;6514;48.606;9.222;2023-07-29T06:59:31;19.40;99.90
12893;DHT22;6514;48.606;9.222;2023-07-29T07:01:58;19.20;99.90
12893;DHT22;6514;48.606;9.222;2023-07-29T07:04:25;19.10;99.90
12893;DHT22;6514;48.606;9.222;2023-07-29T07:06:53;18.90;99.90
12893;DHT22;6514;48.606;9.222;2023-07-29T07:09:20;18.80;99.90
12893;DHT22;6514;48.606;9.222;2023-07-29T07:11:47;18.60;99.90
12893;DHT22;6514;48.606;9.222;2023-07-29T07:14:14;18.40;99.90
12893;DHT22;6514;48.606;9.222;2023-07-29T07:16:40;18.20;99.90
12893;DHT22;6514;48.606;9.222;2023-07-29T07:19:07;18.00;99.90
12893;DHT22;6514;48.606;9.222;2023-07-29T07:21:34;17.80;99.90
12893;DHT22;6514;48.606;9.222;2023-07-29T07:24:02;17.70;99.90
12893;DHT22;6514;48.606;9.222;2023-07-29T07:26:29;17.60;99.90
12893;DHT22;6514;48.606;9.222;2023-07-29T07:28:56;17.50;99.90
12893;DHT22;6514;48.606;9.222;2023-07-29T07:31:23;17.50;99.90
12893;DHT22;6514;48.606;9.222;2023-07-29T07:33:49;17.50;99.90
12893;DHT22;6514;48.606;9.222;2023-07-29T07:36:16;17.60;99.90
12893;DHT22;6514;48.606;9.222;2023-07-29T07:38:43;17.70;99.90
12893;DHT22;6514;48.606;9.222;2023-07-29T07:41:11;17.90;99.90
12893;DHT22;6514;48.606;9.222;2023-07-29T07:43:38;18.10;99.90
12893;DHT22;6514;48.606;9.222;2023-07-29T07:46:05;18.30;99.90
12893;DHT22;6514;48.606;9.222;2023-07-29T07:48:32;18.40;99.90
12893;DHT22;6514;48.606;9.222;2023-07-29T07:50:59;18.60;99.90
12893;DHT22;6514;48.606;9.222;2023-07-29T07:53:26;18.70;99.90
12893;DHT22;6514;48.606;9.222;2023-07-29T07:55:52;18.80;99.90
12893;DHT22;6514;48.606;9.222;2023-07-29T07:58:21;18.90;99.90
12893;DHT22;6514;48.606;9.222;2023-07-29T08:00:47;18.90;99.90
12893;DHT22;6514;48.606;9.222;2023-07-29T08:03:14;19.00;99.90
12893;DHT22;6514;48.606;9.222;2023-07-29T08:05:41;19.10;99.90
12893;DHT22;6514;48.606;9.222;2023-07-29T08:08:08;19.20;99.90
12893;DHT22;6514;48.606;9.222;2023-07-29T08:10:34;19.40;99.90
12893;DHT22;6514;48.606;9.222;2023-07-29T08:13:01;19.60;99.90
12893;DHT22;6514;48.606;9.222;2023-07-29T08:15:29;19.80;99.90
12893;DHT22;6514;48.606;9.222;2023-07-29T08:17:56;20.10;99.90
12893;DHT22;6514;48.606;9.222;2023-07-29T08:20:23;20.30;99.90
12893;DHT22;6514;48.606;9.222;2023-07-29T08:22:49;20.50;99.90
12893;DHT22;6514;48.606;9.222;2023-07-29T08:25:16;20.50;99.90
12893;DHT22;6514;48.606;9.222;2023-07-29T08:27:43;20.70;99.90
12893;DHT22;6514;48.606;9.222;2023-07-29T08:30:10;20.80;99.90
12893;DHT22;6514;48.606;9.222;2023-07-29T08:32:38;20.80;99.90
12893;DHT22;6514;48.606;9.222;2023-07-29T08:35:05;20.90;99.90
12893;DHT22;6514;48.606;9.222;2023-07-29T08:37:32;20.90;99.90
12893;DHT22;6514;48.606;9.222;2023-07-29T08:40:05;20.90;99.90
12893;DHT22;6514;48.606;9.222;2023-07-29T08:42:34;20.80;99.90
12893;DHT22;6514;48.606;9.222;2023-07-29T08:45:06;20.80;99.90
12893;DHT22;6514;48.606;9.222;2023-07-29T08:47:33;21.10;99.90
12893;DHT22;6514;48.606;9.222;2023-07-29T08:50:03;21.20;99.90
12893;DHT22;6514;48.606;9.222;2023-07-29T08:52:30;21.30;99.90
12893;DHT22;6514;48.606;9.222;2023-07-29T08:55:00;21.50;99.90
12893;DHT22;6514;48.606;9.222;2023-07-29T08:57:27;21.50;99.90
12893;DHT22;6514;48.606;9.222;2023-07-29T08:59:55;21.60;99.90
12893;DHT22;6514;48.606;9.222;2023-07-29T09:02:22;21.70;99.90
12893;DHT22;6514;48.606;9.222;2023-07-29T09:04:49;22.20;99.90
12893;DHT22;6514;48.606;9.222;2023-07-29T09:07:18;22.70;99.90
12893;DHT22;6514;48.606;9.222;2023-07-29T09:09:45;23.00;99.90
12893;DHT22;6514;48.606;9.222;2023-07-29T09:12:12;23.40;99.90
12893;DHT22;6514;48.606;9.222;2023-07-29T09:14:39;23.70;99.90
12893;DHT22;6514;48.606;9.222;2023-07-29T09:17:07;23.90;99.90
12893;DHT22;6514;48.606;9.222;2023-07-29T09:19:35;24.10;99.90
12893;DHT22;6514;48.606;9.222;2023-07-29T09:22:02;24.20;99.90
12893;DHT22;6514;48.606;9.222;2023-07-29T09:24:30;24.50;99.90
12893;DHT22;6514;48.606;9.222;2023-07-29T09:26:57;24.60;99.90
12893;DHT22;6514;48.606;9.222;2023-07-29T09:29:28;24.60;99.90
12893;DHT22;6514;48.606;9.222;2023-07-29T09:32:18;24.60;99.90
12893;DHT22;6514;48.606;9.222;2023-07-29T09:34:45;24.70;99.90
12893;DHT22;6514;48.606;9.222;2023-07-29T09:37:16;25.00;99.90
12893;DHT22;6514;48.606;9.222;2023-07-29T09:39:45;25.40;99.90
12893;DHT22;6514;48.606;9.222;2023-07-29T09:42:17;25.60;99.90
12893;DHT22;6514;48.606;9.222;2023-07-29T09:44:45;25.90;99.90
12893;DHT22;6514;48.606;9.222;2023-07-29T09:47:19;26.60;99.90
12893;DHT22;6514;48.606;9.222;2023-07-29T09:49:47;26.70;99.90
12893;DHT22;6514;48.606;9.222;2023-07-29T09:52:15;27.10;99.90
12893;DHT22;6514;48.606;9.222;2023-07-29T09:54:43;27.20;99.90
12893;DHT22;6514;48.606;9.222;2023-07-29T09:57:12;27.30;99.90
12893;DHT22;6514;48.606;9.222;2023-07-29T09:59:40;27.30;99.90
12893;DHT22;6514;48.606;9.222;2023-07-29T10:02:13;27.40;99.90
12893;DHT22;6514;48.606;9.222;2023-07-29T10:04:41;27.20;99.90
12893;DHT22;6514;48.606;9.222;2023-07-29T10:07:09;27.10;99.90
12893;DHT22;6514;48.606;9.222;2023-07-29T10:09:37;27.20;99.90
12893;DHT22;6514;48.606;9.222;2023-07-29T10:12:06;27.30;99.90
12893;DHT22;6514;48.606;9.222;2023-07-29T10:14:35;27.20;99.90
12893;DHT22;6514;48.606;9.222;2023-07-29T10:17:05;27.10;99.90
12893;DHT22;6514;48.606;9.222;2023-07-29T10:19:32;27.20;99.90
12893;DHT22;6514;48.606;9.222;2023-07-29T10:22:02;27.30;99.90
12893;DHT22;6514;48.606;9.222;2023-07-29T10:24:30;27.30;99.90
12893;DHT22;6514;48.606;9.222;2023-07-29T10:26:59;27.40;99.90
12893;DHT22;6514;48.606;9.222;2023-07-29T10:29:31;27.70;99.90
12893;DHT22;6514;48.606;9.222;2023-07-29T10:32:01;27.80;99.90
12893;DHT22;6514;48.606;9.222;2023-07-29T10:34:29;27.90;99.90
12893;DHT22;6514;48.606;9.222;2023-07-29T10:36:56;28.10;99.90
12893;DHT22;6514;48.606;9.222;2023-07-29T10:39:24;28.00;99.90
12893;DHT22;6514;48.606;9.222;2023-07-29T10:41:58;27.80;99.90
12893;DHT22;6514;48.606;9.222;2023-07-29T10:44:47;27.80;99.90
12893;DHT22;6514;48.606;9.222;2023-07-29T10:47:18;28.00;99.90
12893;DHT22;6514;48.606;9.222;2023-07-29T10:49:46;28.30;99.90
12893;DHT22;6514;48.606;9.222;2023-07-29T10:52:15;28.20;99.90
12893;DHT22;6514;48.606;9.222;2023-07-29T10:54:43;28.20;99.90
12893;DHT22;6514;48.606;9.222;2023-07-29T10:57:13;28.40;99.90
12893;DHT22;6514;48.606;9.222;2023-07-29T10:59:41;28.70;99.90
12893;DHT22;6514;48.606;9.222;2023-07-29T11:02:18;28.90;99.90
12893;DHT22;6514;48.606;9.222;2023-07-29T11:04:50;29.00;99.90
12893;DHT22;6514;48.606;9.222;2023-07-29T11:07:24;29.10;99.90
12893;DHT22;6514;48.606;9.222;2023-07-29T11:09:59;29.20;99.90
12893;DHT22;6514;48.606;9.222;2023-07-29T11:12:37;29.30;99.90
12893;DHT22;6514;48.606;9.222;2023-07-29T11:15:12;29.50;99.90
12893;DHT22;6514;48.606;9.222;2023-07-29T11:17:42;29.70;99.90
12893;DHT22;6514;48.606;9.222;2023-07-29T11:20:09;29.50;99.90
12893;DHT22;6514;48.606;9.222;2023-07-29T11:22:37;29.30;99.90
12893;DHT22;6514;48.606;9.222;2023-07-29T11:25:05;29.00;99.90
12893;DHT22;6514;48.606;9.222;2023-07-29T11:27:33;28.60;99.90
12893;DHT22;6514;48.606;9.222;2023-07-29T11:30:01;28.40;99.90
12893;DHT22;6514;48.606;9.222;2023-07-29T11:32:29;28.00;99.90
12893;DHT22;6514;48.606;9.222;2023-07-29T11:35:00;27.80;99.90
12893;DHT22;6514;48.606;9.222;2023-07-29T11:37:27;27.60;99.90
12893;DHT22;6514;48.606;9.222;2023-07-29T11:39:54;27.70;99.90
12893;DHT22;6514;48.606;9.222;2023-07-29T11:42:21;27.80;99.90
12893;DHT22;6514;48.606;9.222;2023-07-29T11:44:48;28.30;99.90
12893;DHT22;6514;48.606;9.222;2023-07-29T11:47:14;28.20;99.90
12893;DHT22;6514;48.606;9.222;2023-07-29T11:49:41;28.40;99.90
12893;DHT22;6514;48.606;9.222;2023-07-29T11:52:10;28.70;99.90
12893;DHT22;6514;48.606;9.222;2023-07-29T11:54:38;29.20;99.90
12893;DHT22;6514;48.606;9.222;2023-07-29T11:57:06;29.60;99.90
12893;DHT22;6514;48.606;9.222;2023-07-29T11:59:34;29.60;99.90
12893;DHT22;6514;48.606;9.222;2023-07-29T12:02:02;29.60;99.90
12893;DHT22;6514;48.606;9.222;2023-07-29T12:04:32;29.40;99.90
12893;DHT22;6514;48.606;9.222;2023-07-29T12:07:00;29.00;99.90
12893;DHT22;6514;48.606;9.222;2023-07-29T12:09:29;28.70;99.90
12893;DHT22;6514;48.606;9.222;2023-07-29T12:11:56;28.60;99.90
12893;DHT22;6514;48.606;9.222;2023-07-29T12:14:26;28.50;99.90
12893;DHT22;6514;48.606;9.222;2023-07-29T12:16:53;28.50;99.90
12893;DHT22;6514;48.606;9.222;2023-07-29T12:19:20;28.40;99.90
12893;DHT22;6514;48.606;9.222;2023-07-29T12:21:48;28.30;99.90
12893;DHT22;6514;48.606;9.222;2023-07-29T12:24:15;28.70;99.90
12893;DHT22;6514;48.606;9.222;2023-07-29T12:26:44;29.30;99.90
12893;DHT22;6514;48.606;9.222;2023-07-29T12:29:12;29.70;99.90
12893;DHT22;6514;48.606;9.222;2023-07-29T12:31:39;29.90;99.90
12893;DHT22;6514;48.606;9.222;2023-07-29T12:34:06;30.00;99.90
12893;DHT22;6514;48.606;9.222;2023-07-29T12:36:43;29.40;99.90
12893;DHT22;6514;48.606;9.222;2023-07-29T12:39:20;28.90;99.90
12893;DHT22;6514;48.606;9.222;2023-07-29T12:41:49;28.40;99.90
12893;DHT22;6514;48.606;9.222;2023-07-29T12:44:17;27.90;99.90
12893;DHT22;6514;48.606;9.222;2023-07-29T12:46:44;28.00;99.90
12893;DHT22;6514;48.606;9.222;2023-07-29T12:49:10;28.00;99.90
12893;DHT22;6514;48.606;9.222;2023-07-29T12:51:37;28.00;99.90
12893;DHT22;6514;48.606;9.222;2023-07-29T12:54:04;28.20;99.90
12893;DHT22;6514;48.606;9.222;2023-07-29T12:56:32;28.30;99.90
12893;DHT22;6514;48.606;9.222;2023-07-29T12:59:01;28.20;99.90
12893;DHT22;6514;48.606;9.222;2023-07-29T13:01:28;28.10;99.90
12893;DHT22;6514;48.606;9.222;2023-07-29T13:03:56;27.90;99.90
12893;DHT22;6514;48.606;9.222;2023-07-29T13:06:23;28.00;99.90
12893;DHT22;6514;48.606;9.222;2023-07-29T13:08:50;27.80;99.90
12893;DHT22;6514;48.606;9.222;2023-07-29T13:11:17;27.90;99.90
12893;DHT22;6514;48.606;9.222;2023-07-29T13:13:44;28.10;99.90
12893;DHT22;6514;48.606;9.222;2023-07-29T13:16:12;28.30;99.90
12893;DHT22;6514;48.606;9.222;2023-07-29T13:18:39;28.70;99.90
12893;DHT22;6514;48.606;9.222;2023-07-29T13:21:06;28.90;99.90
12893;DHT22;6514;48.606;9.222;2023-07-29T13:23:33;29.00;99.90
12893;DHT22;6514;48.606;9.222;2023-07-29T13:26:00;29.10;99.90
12893;DHT22;6514;48.606;9.222;2023-07-29T13:28:26;29.20;99.90
12893;DHT22;6514;48.606;9.222;2023-07-29T13:30:53;29.30;99.90
12893;DHT22;6514;48.606;9.222;2023-07-29T13:33:21;29.20;99.90
12893;DHT22;6514;48.606;9.222;2023-07-29T13:35:48;29.00;99.90
12893;DHT22;6514;48.606;9.222;2023-07-29T13:38:15;29.00;99.90
12893;DHT22;6514;48.606;9.222;2023-07-29T13:40:42;29.10;99.90
12893;DHT22;6514;48.606;9.222;2023-07-29T13:43:09;29.20;99.90
12893;DHT22;6514;48.606;9.222;2023-07-29T13:45:36;29.00;99.90
12893;DHT22;6514;48.606;9.222;2023-07-29T13:48:03;29.10;99.90
12893;DHT22;6514;48.606;9.222;2023-07-29T13:50:31;28.80;99.90
12893;DHT22;6514;48.606;9.222;2023-07-29T13:52:58;28.60;99.90
12893;DHT22;6514;48.606;9.222;2023-07-29T13:55:25;28.40;99.90
12893;DHT22;6514;48.606;9.222;2023-07-29T13:57:53;28.20;99.90
12893;DHT22;6514;48.606;9.222;2023-07-29T14:00:20;28.00;99.90
12893;DHT22;6514;48.606;9.222;2023-07-29T14:02:47;27.80;99.90
12893;DHT22;6514;48.606;9.222;2023-07-29T14:05:14;27.70;99.90
12893;DHT22;6514;48.606;9.222;2023-07-29T14:07:42;27.60;99.90
12893;DHT22;6514;48.606;9.222;2023-07-29T14:10:09;27.50;99.90
12893;DHT22;6514;48.606;9.222;2023-07-29T14:12:36;27.20;99.90
12893;DHT22;6514;48.606;9.222;2023-07-29T14:15:04;27.10;99.90
12893;DHT22;6514;48.606;9.222;2023-07-29T14:17:31;27.00;99.90
12893;DHT22;6514;48.606;9.222;2023-07-29T14:19:58;27.10;99.90
12893;DHT22;6514;48.606;9.222;2023-07-29T14:22:25;27.50;99.90
12893;DHT22;6514;48.606;9.222;2023-07-29T14:24:53;27.80;99.90
12893;DHT22;6514;48.606;9.222;2023-07-29T14:27:20;28.00;99.90
12893;DHT22;6514;48.606;9.222;2023-07-29T14:29:46;28.20;99.90
12893;DHT22;6514;48.606;9.222;2023-07-29T14:32:13;28.30;99.90
12893;DHT22;6514;48.606;9.222;2023-07-29T14:34:40;28.40;99.90
12893;DHT22;6514;48.606;9.222;2023-07-29T14:37:07;28.50;99.90
12893;DHT22;6514;48.606;9.222;2023-07-29T14:39:33;28.70;99.90
12893;DHT22;6514;48.606;9.222;2023-07-29T14:42:02;28.70;99.90
12893;DHT22;6514;48.606;9.222;2023-07-29T14:44:28;28.90;99.90
12893;DHT22;6514;48.606;9.222;2023-07-29T14:46:55;28.70;99.90
12893;DHT22;6514;48.606;9.222;2023-07-29T14:49:22;28.40;99.90
12893;DHT22;6514;48.606;9.222;2023-07-29T14:51:49;28.20;99.90
12893;DHT22;6514;48.606;9.222;2023-07-29T14:54:16;28.00;99.90
12893;DHT22;6514;48.606;9.222;2023-07-29T14:56:42;27.90;99.90
12893;DHT22;6514;48.606;9.222;2023-07-29T14:59:10;27.70;99.90
12893;DHT22;6514;48.606;9.222;2023-07-29T15:01:37;27.60;99.90
12893;DHT22;6514;48.606;9.222;2023-07-29T15:04:04;27.40;99.90
12893;DHT22;6514;48.606;9.222;2023-07-29T15:06:31;27.30;99.90
12893;DHT22;6514;48.606;9.222;2023-07-29T15:08:58;27.20;99.90
12893;DHT22;6514;48.606;9.222;2023-07-29T15:11:25;27.00;99.90
12893;DHT22;6514;48.606;9.222;2023-07-29T15:13:52;26.80;99.90
12893;DHT22;6514;48.606;9.222;2023-07-29T15:16:23;26.60;99.90
12893;DHT22;6514;48.606;9.222;2023-07-29T15:18:50;26.50;99.90
12893;DHT22;6514;48.606;9.222;2023-07-29T15:21:17;26.50;99.90
12893;DHT22;6514;48.606;9.222;2023-07-29T15:23:44;26.40;99.90
12893;DHT22;6514;48.606;9.222;2023-07-29T15:26:11;26.20;99.90
12893;DHT22;6514;48.606;9.222;2023-07-29T15:28:38;26.20;99.90
12893;DHT22;6514;48.606;9.222;2023-07-29T15:31:05;26.10;99.90
12893;DHT22;6514;48.606;9.222;2023-07-29T15:33:33;26.00;99.90
12893;DHT22;6514;48.606;9.222;2023-07-29T15:36:00;26.10;99.90
12893;DHT22;6514;48.606;9.222;2023-07-29T15:38:27;26.10;99.90
12893;DHT22;6514;48.606;9.222;2023-07-29T15:40:54;26.10;99.90
12893;DHT22;6514;48.606;9.222;2023-07-29T15:43:21;26.20;99.90
12893;DHT22;6514;48.606;9.222;2023-07-29T15:45:48;26.30;99.90
12893;DHT22;6514;48.606;9.222;2023-07-29T15:48:15;26.30;99.90